sensor_id;sensor_type;location;lat;lon;timestamp;temperature;humidity
44170;DHT22;29836;52.286;9.576;2022-12-18T00:01:21;-4.80;99.90
44170;DHT22;29836;52.286;9.576;2022-12-18T00:03:48;-4.90;99.90
44170;DHT22;29836;52.286;9.576;2022-12-18T00:06:14;-5.20;99.90
44170;DHT22;29836;52.286;9.576;2022-12-18T00:08:41;-5.40;99.90
44170;DHT22;29836;52.286;9.576;2022-12-18T00:11:08;-5.50;99.90
44170;DHT22;29836;52.286;9.576;2022-12-18T00:13:37;-5.50;99.90
44170;DHT22;29836;52.286;9.576;2022-12-18T00:16:04;-5.60;99.90
44170;DHT22;29836;52.286;9.576;2022-12-18T00:18:31;-5.60;99.90
44170;DHT22;29836;52.286;9.576;2022-12-18T00:21:04;-5.60;99.90
44170;DHT22;29836;52.286;9.576;2022-12-18T00:23:31;-5.50;99.90
44170;DHT22;29836;52.286;9.576;2022-12-18T00:26:05;-5.40;99.90
44170;DHT22;29836;52.286;9.576;2022-12-18T00:28:31;-5.30;99.90
44170;DHT22;29836;52.286;9.576;2022-12-18T00:31:07;-5.40;99.90
44170;DHT22;29836;52.286;9.576;2022-12-18T00:33:34;-5.60;99.90
44170;DHT22;29836;52.286;9.576;2022-12-18T00:36:04;-5.80;99.90
44170;DHT22;29836;52.286;9.576;2022-12-18T00:38:29;-5.80;99.90
44170;DHT22;29836;52.286;9.576;2022-12-18T00:40:55;-5.80;99.90
44170;DHT22;29836;52.286;9.576;2022-12-18T00:43:20;-5.80;99.90
44170;DHT22;29836;52.286;9.576;2022-12-18T00:45:46;-5.70;99.90
44170;DHT22;29836;52.286;9.576;2022-12-18T00:48:11;-5.80;99.90
44170;DHT22;29836;52.286;9.576;2022-12-18T00:50:37;-5.80;99.90
44170;DHT22;29836;52.286;9.576;2022-12-18T00:53:03;-5.80;99.90
44170;DHT22;29836;52.286;9.576;2022-12-18T00:55:29;-5.90;99.90
44170;DHT22;29836;52.286;9.576;2022-12-18T00:57:54;-5.90;99.90
44170;DHT22;29836;52.286;9.576;2022-12-18T01:00:20;-5.60;99.90
44170;DHT22;29836;52.286;9.576;2022-12-18T01:02:46;-5.40;99.90
44170;DHT22;29836;52.286;9.576;2022-12-18T01:05:12;-5.50;99.90
44170;DHT22;29836;52.286;9.576;2022-12-18T01:07:38;-5.40;99.90
44170;DHT22;29836;52.286;9.576;2022-12-18T01:10:05;-5.50;99.90
44170;DHT22;29836;52.286;9.576;2022-12-18T01:12:32;-5.80;99.90
44170;DHT22;29836;52.286;9.576;2022-12-18T01:14:58;-6.10;99.90
44170;DHT22;29836;52.286;9.576;2022-12-18T01:17:23;-6.10;99.90
44170;DHT22;29836;52.286;9.576;2022-12-18T01:19:49;-6.30;99.90
44170;DHT22;29836;52.286;9.576;2022-12-18T01:22:15;-6.30;99.90
44170;DHT22;29836;52.286;9.576;2022-12-18T01:24:40;-6.40;99.90
44170;DHT22;29836;52.286;9.576;2022-12-18T01:27:06;-6.60;99.90
44170;DHT22;29836;52.286;9.576;2022-12-18T01:29:32;-6.80;99.90
44170;DHT22;29836;52.286;9.576;2022-12-18T01:31:57;-6.90;99.90
44170;DHT22;29836;52.286;9.576;2022-12-18T01:34:24;-7.00;99.90
44170;DHT22;29836;52.286;9.576;2022-12-18T01:36:49;-7.00;99.90
44170;DHT22;29836;52.286;9.576;2022-12-18T01:39:18;-7.00;99.90
44170;DHT22;29836;52.286;9.576;2022-12-18T01:41:44;-6.70;99.90
44170;DHT22;29836;52.286;9.576;2022-12-18T01:47:25;-5.60;99.90
44170;DHT22;29836;52.286;9.576;2022-12-18T01:49:52;-5.20;99.90
44170;DHT22;29836;52.286;9.576;2022-12-18T01:52:18;-4.70;99.90
44170;DHT22;29836;52.286;9.576;2022-12-18T01:54:45;-4.30;99.90
44170;DHT22;29836;52.286;9.576;2022-12-18T01:57:11;-4.10;99.90
44170;DHT22;29836;52.286;9.576;2022-12-18T01:59:39;-4.00;99.90
44170;DHT22;29836;52.286;9.576;2022-12-18T02:02:06;-3.90;99.90
44170;DHT22;29836;52.286;9.576;2022-12-18T02:04:32;-3.90;99.90
44170;DHT22;29836;52.286;9.576;2022-12-18T02:10:29;-3.90;99.90
44170;DHT22;29836;52.286;9.576;2022-12-18T02:15:55;-4.20;99.90
44170;DHT22;29836;52.286;9.576;2022-12-18T02:18:33;-4.40;99.90
44170;DHT22;29836;52.286;9.576;2022-12-18T02:21:38;-4.80;99.90
44170;DHT22;29836;52.286;9.576;2022-12-18T02:24:38;-5.10;99.90
44170;DHT22;29836;52.286;9.576;2022-12-18T02:27:07;-5.20;99.90
44170;DHT22;29836;52.286;9.576;2022-12-18T02:29:40;-5.50;99.90
44170;DHT22;29836;52.286;9.576;2022-12-18T02:32:13;-5.60;99.90
44170;DHT22;29836;52.286;9.576;2022-12-18T02:34:40;-5.60;99.90
44170;DHT22;29836;52.286;9.576;2022-12-18T02:37:09;-5.70;99.90
44170;DHT22;29836;52.286;9.576;2022-12-18T02:39:38;-5.80;99.90
44170;DHT22;29836;52.286;9.576;2022-12-18T02:42:05;-5.80;99.90
44170;DHT22;29836;52.286;9.576;2022-12-18T02:44:34;-5.80;99.90
44170;DHT22;29836;52.286;9.576;2022-12-18T02:47:01;-6.00;99.90
44170;DHT22;29836;52.286;9.576;2022-12-18T03:03:37;-6.30;99.90
44170;DHT22;29836;52.286;9.576;2022-12-18T03:06:10;-6.40;99.90
44170;DHT22;29836;52.286;9.576;2022-12-18T03:08:40;-6.40;99.90
44170;DHT22;29836;52.286;9.576;2022-12-18T03:11:10;-6.50;99.90
44170;DHT22;29836;52.286;9.576;2022-12-18T03:13:51;-6.50;99.90
44170;DHT22;29836;52.286;9.576;2022-12-18T03:16:25;-6.60;99.90
44170;DHT22;29836;52.286;9.576;2022-12-18T03:18:58;-6.50;99.90
44170;DHT22;29836;52.286;9.576;2022-12-18T03:21:33;-6.50;99.90
44170;DHT22;29836;52.286;9.576;2022-12-18T03:24:06;-6.50;99.90
44170;DHT22;29836;52.286;9.576;2022-12-18T03:26:33;-6.40;99.90
44170;DHT22;29836;52.286;9.576;2022-12-18T03:29:04;-6.50;99.90
44170;DHT22;29836;52.286;9.576;2022-12-18T03:31:31;-6.50;99.90
44170;DHT22;29836;52.286;9.576;2022-12-18T03:34:01;-6.50;99.90
44170;DHT22;29836;52.286;9.576;2022-12-18T03:36:30;-6.50;99.90
44170;DHT22;29836;52.286;9.576;2022-12-18T03:38:56;-6.50;99.90
44170;DHT22;29836;52.286;9.576;2022-12-18T03:41:45;-6.40;99.90
44170;DHT22;29836;52.286;9.576;2022-12-18T03:44:30;-6.40;99.90
44170;DHT22;29836;52.286;9.576;2022-12-18T03:47:14;-6.30;99.90
44170;DHT22;29836;52.286;9.576;2022-12-18T03:50:03;-6.40;99.90
44170;DHT22;29836;52.286;9.576;2022-12-18T03:52:40;-6.40;99.90
44170;DHT22;29836;52.286;9.576;2022-12-18T03:55:12;-6.40;99.90
44170;DHT22;29836;52.286;9.576;2022-12-18T03:57:38;-6.50;99.90
44170;DHT22;29836;52.286;9.576;2022-12-18T04:00:11;-6.50;99.90
44170;DHT22;29836;52.286;9.576;2022-12-18T04:02:39;-6.60;99.90
44170;DHT22;29836;52.286;9.576;2022-12-18T04:05:07;-6.70;99.90
44170;DHT22;29836;52.286;9.576;2022-12-18T04:07:35;-6.80;99.90
44170;DHT22;29836;52.286;9.576;2022-12-18T04:10:02;-6.90;99.90
44170;DHT22;29836;52.286;9.576;2022-12-18T04:12:29;-6.90;99.90
44170;DHT22;29836;52.286;9.576;2022-12-18T04:14:54;-7.10;99.90
44170;DHT22;29836;52.286;9.576;2022-12-18T04:17:20;-7.20;99.90
44170;DHT22;29836;52.286;9.576;2022-12-18T04:19:46;-7.30;99.90
44170;DHT22;29836;52.286;9.576;2022-12-18T04:22:12;-7.30;99.90
44170;DHT22;29836;52.286;9.576;2022-12-18T04:24:38;-7.10;99.90
44170;DHT22;29836;52.286;9.576;2022-12-18T04:27:03;-7.00;99.90
44170;DHT22;29836;52.286;9.576;2022-12-18T04:29:29;-6.90;99.90
44170;DHT22;29836;52.286;9.576;2022-12-18T04:31:55;-6.70;99.90
44170;DHT22;29836;52.286;9.576;2022-12-18T04:34:21;-6.50;99.90
44170;DHT22;29836;52.286;9.576;2022-12-18T04:36:46;-6.40;99.90
44170;DHT22;29836;52.286;9.576;2022-12-18T04:39:12;-6.30;99.90
44170;DHT22;29836;52.286;9.576;2022-12-18T04:41:37;-6.20;99.90
44170;DHT22;29836;52.286;9.576;2022-12-18T04:44:03;-6.20;99.90
44170;DHT22;29836;52.286;9.576;2022-12-18T04:46:29;-6.20;99.90
44170;DHT22;29836;52.286;9.576;2022-12-18T04:48:55;-6.10;99.90
44170;DHT22;29836;52.286;9.576;2022-12-18T04:51:21;-6.10;99.90
44170;DHT22;29836;52.286;9.576;2022-12-18T04:53:46;-6.10;99.90
44170;DHT22;29836;52.286;9.576;2022-12-18T04:56:14;-6.30;99.90
44170;DHT22;29836;52.286;9.576;2022-12-18T04:58:41;-6.50;99.90
44170;DHT22;29836;52.286;9.576;2022-12-18T05:01:08;-6.70;99.90
44170;DHT22;29836;52.286;9.576;2022-12-18T05:03:35;-7.00;99.90
44170;DHT22;29836;52.286;9.576;2022-12-18T05:06:01;-7.10;99.90
44170;DHT22;29836;52.286;9.576;2022-12-18T05:08:27;-7.20;99.90
44170;DHT22;29836;52.286;9.576;2022-12-18T05:11:00;-7.20;99.90
44170;DHT22;29836;52.286;9.576;2022-12-18T05:13:26;-7.20;99.90
44170;DHT22;29836;52.286;9.576;2022-12-18T05:15:52;-7.10;99.90
44170;DHT22;29836;52.286;9.576;2022-12-18T05:18:18;-7.10;99.90
44170;DHT22;29836;52.286;9.576;2022-12-18T05:20:43;-7.10;99.90
44170;DHT22;29836;52.286;9.576;2022-12-18T05:23:09;-7.00;99.90
44170;DHT22;29836;52.286;9.576;2022-12-18T05:25:35;-6.90;99.90
44170;DHT22;29836;52.286;9.576;2022-12-18T05:28:00;-6.80;99.90
44170;DHT22;29836;52.286;9.576;2022-12-18T05:30:26;-6.80;99.90
44170;DHT22;29836;52.286;9.576;2022-12-18T05:32:52;-6.80;99.90
44170;DHT22;29836;52.286;9.576;2022-12-18T05:35:18;-6.70;99.90
44170;DHT22;29836;52.286;9.576;2022-12-18T05:37:44;-6.70;99.90
44170;DHT22;29836;52.286;9.576;2022-12-18T05:40:10;-6.60;99.90
44170;DHT22;29836;52.286;9.576;2022-12-18T05:42:36;-6.70;99.90
44170;DHT22;29836;52.286;9.576;2022-12-18T05:45:02;-6.60;99.90
44170;DHT22;29836;52.286;9.576;2022-12-18T05:47:27;-6.80;99.90
44170;DHT22;29836;52.286;9.576;2022-12-18T05:49:54;-6.90;99.90
44170;DHT22;29836;52.286;9.576;2022-12-18T05:52:19;-7.10;99.90
44170;DHT22;29836;52.286;9.576;2022-12-18T05:54:45;-7.20;99.90
44170;DHT22;29836;52.286;9.576;2022-12-18T05:57:11;-7.20;99.90
44170;DHT22;29836;52.286;9.576;2022-12-18T05:59:36;-6.60;99.90
44170;DHT22;29836;52.286;9.576;2022-12-18T06:02:02;-6.40;99.90
44170;DHT22;29836;52.286;9.576;2022-12-18T06:04:28;-6.40;99.90
44170;DHT22;29836;52.286;9.576;2022-12-18T06:06:54;-6.40;99.90
44170;DHT22;29836;52.286;9.576;2022-12-18T06:09:19;-6.40;99.90
44170;DHT22;29836;52.286;9.576;2022-12-18T06:11:45;-6.30;99.90
44170;DHT22;29836;52.286;9.576;2022-12-18T06:14:10;-6.40;99.90
44170;DHT22;29836;52.286;9.576;2022-12-18T06:16:36;-6.50;99.90
44170;DHT22;29836;52.286;9.576;2022-12-18T06:19:03;-6.60;99.90
44170;DHT22;29836;52.286;9.576;2022-12-18T06:21:30;-6.80;99.90
44170;DHT22;29836;52.286;9.576;2022-12-18T06:23:55;-6.90;99.90
44170;DHT22;29836;52.286;9.576;2022-12-18T06:26:22;-6.90;99.90
44170;DHT22;29836;52.286;9.576;2022-12-18T06:28:47;-6.80;99.90
44170;DHT22;29836;52.286;9.576;2022-12-18T06:31:13;-6.90;99.90
44170;DHT22;29836;52.286;9.576;2022-12-18T06:33:38;-6.90;99.90
44170;DHT22;29836;52.286;9.576;2022-12-18T06:36:14;-6.90;99.90
44170;DHT22;29836;52.286;9.576;2022-12-18T06:38:41;-7.00;99.90
44170;DHT22;29836;52.286;9.576;2022-12-18T06:41:15;-6.80;99.90
44170;DHT22;29836;52.286;9.576;2022-12-18T06:43:42;-6.70;99.90
44170;DHT22;29836;52.286;9.576;2022-12-18T06:46:08;-6.70;99.90
44170;DHT22;29836;52.286;9.576;2022-12-18T06:48:34;-6.70;99.90
44170;DHT22;29836;52.286;9.576;2022-12-18T06:51:00;-6.90;99.90
44170;DHT22;29836;52.286;9.576;2022-12-18T06:53:26;-6.90;99.90
44170;DHT22;29836;52.286;9.576;2022-12-18T06:55:51;-6.90;99.90
44170;DHT22;29836;52.286;9.576;2022-12-18T06:58:17;-6.80;99.90
44170;DHT22;29836;52.286;9.576;2022-12-18T07:00:42;-6.80;99.90
44170;DHT22;29836;52.286;9.576;2022-12-18T07:03:08;-6.80;99.90
44170;DHT22;29836;52.286;9.576;2022-12-18T07:05:34;-6.80;99.90
44170;DHT22;29836;52.286;9.576;2022-12-18T07:08:00;-6.80;99.90
44170;DHT22;29836;52.286;9.576;2022-12-18T07:10:26;-6.90;99.90
44170;DHT22;29836;52.286;9.576;2022-12-18T07:12:51;-6.90;99.90
44170;DHT22;29836;52.286;9.576;2022-12-18T07:15:17;-7.10;99.90
44170;DHT22;29836;52.286;9.576;2022-12-18T07:17:43;-7.10;99.90
44170;DHT22;29836;52.286;9.576;2022-12-18T07:20:09;-7.10;99.90
44170;DHT22;29836;52.286;9.576;2022-12-18T07:22:34;-7.10;99.90
44170;DHT22;29836;52.286;9.576;2022-12-18T07:25:00;-7.00;99.90
44170;DHT22;29836;52.286;9.576;2022-12-18T07:27:26;-6.90;99.90
44170;DHT22;29836;52.286;9.576;2022-12-18T07:29:51;-6.80;99.90
44170;DHT22;29836;52.286;9.576;2022-12-18T07:32:17;-6.70;99.90
44170;DHT22;29836;52.286;9.576;2022-12-18T07:34:42;-6.70;99.90
44170;DHT22;29836;52.286;9.576;2022-12-18T07:37:08;-6.70;99.90
44170;DHT22;29836;52.286;9.576;2022-12-18T07:39:33;-6.70;99.90
44170;DHT22;29836;52.286;9.576;2022-12-18T07:41:59;-6.80;99.90
44170;DHT22;29836;52.286;9.576;2022-12-18T07:45:01;-6.90;99.90
44170;DHT22;29836;52.286;9.576;2022-12-18T07:47:27;-6.90;99.90
44170;DHT22;29836;52.286;9.576;2022-12-18T07:49:53;-6.90;99.90
44170;DHT22;29836;52.286;9.576;2022-12-18T07:52:19;-6.90;99.90
44170;DHT22;29836;52.286;9.576;2022-12-18T07:54:44;-6.90;99.90
44170;DHT22;29836;52.286;9.576;2022-12-18T07:57:10;-6.90;99.90
44170;DHT22;29836;52.286;9.576;2022-12-18T07:59:36;-6.80;99.90
44170;DHT22;29836;52.286;9.576;2022-12-18T08:02:02;-6.70;99.90
44170;DHT22;29836;52.286;9.576;2022-12-18T08:04:28;-6.60;99.90
44170;DHT22;29836;52.286;9.576;2022-12-18T08:06:54;-6.40;99.90
44170;DHT22;29836;52.286;9.576;2022-12-18T08:09:19;-6.30;99.90
44170;DHT22;29836;52.286;9.576;2022-12-18T08:11:45;-6.10;99.90
44170;DHT22;29836;52.286;9.576;2022-12-18T08:14:11;-5.80;99.90
44170;DHT22;29836;52.286;9.576;2022-12-18T08:16:37;-5.40;99.90
44170;DHT22;29836;52.286;9.576;2022-12-18T08:19:03;-5.30;99.90
44170;DHT22;29836;52.286;9.576;2022-12-18T08:21:30;-5.40;99.90
44170;DHT22;29836;52.286;9.576;2022-12-18T08:24:00;-5.30;99.90
44170;DHT22;29836;52.286;9.576;2022-12-18T08:26:29;-5.30;99.90
44170;DHT22;29836;52.286;9.576;2022-12-18T08:28:56;-5.30;99.90
44170;DHT22;29836;52.286;9.576;2022-12-18T08:31:23;-5.20;99.90
44170;DHT22;29836;52.286;9.576;2022-12-18T08:33:51;-4.80;99.90
44170;DHT22;29836;52.286;9.576;2022-12-18T08:36:52;-4.30;99.90
44170;DHT22;29836;52.286;9.576;2022-12-18T08:39:17;-3.60;99.90
44170;DHT22;29836;52.286;9.576;2022-12-18T08:41:43;-3.20;99.90
44170;DHT22;29836;52.286;9.576;2022-12-18T08:44:29;-2.60;99.90
44170;DHT22;29836;52.286;9.576;2022-12-18T08:47:05;-2.60;99.90
44170;DHT22;29836;52.286;9.576;2022-12-18T08:49:32;-2.80;99.90
44170;DHT22;29836;52.286;9.576;2022-12-18T08:51:58;-2.90;99.90
44170;DHT22;29836;52.286;9.576;2022-12-18T08:54:24;-3.00;99.90
44170;DHT22;29836;52.286;9.576;2022-12-18T08:56:50;-2.50;99.90
44170;DHT22;29836;52.286;9.576;2022-12-18T08:59:17;-2.10;99.90
44170;DHT22;29836;52.286;9.576;2022-12-18T09:01:43;-1.90;99.90
44170;DHT22;29836;52.286;9.576;2022-12-18T09:04:12;-1.30;99.90
44170;DHT22;29836;52.286;9.576;2022-12-18T09:06:37;-1.10;99.90
44170;DHT22;29836;52.286;9.576;2022-12-18T09:09:04;-0.50;99.90
44170;DHT22;29836;52.286;9.576;2022-12-18T09:11:31;-0.40;99.90
44170;DHT22;29836;52.286;9.576;2022-12-18T09:13:58;-0.80;99.90
44170;DHT22;29836;52.286;9.576;2022-12-18T09:16:25;-1.00;99.90
44170;DHT22;29836;52.286;9.576;2022-12-18T09:18:51;-0.90;99.90
44170;DHT22;29836;52.286;9.576;2022-12-18T09:21:19;-0.40;99.90
44170;DHT22;29836;52.286;9.576;2022-12-18T09:23:49;-0.20;99.90
44170;DHT22;29836;52.286;9.576;2022-12-18T09:26:15;-0.40;99.90
44170;DHT22;29836;52.286;9.576;2022-12-18T09:28:41;-0.80;99.90
44170;DHT22;29836;52.286;9.576;2022-12-18T09:31:08;-0.80;99.90
44170;DHT22;29836;52.286;9.576;2022-12-18T09:33:35;-0.60;99.90
44170;DHT22;29836;52.286;9.576;2022-12-18T09:36:04;-0.90;99.90
44170;DHT22;29836;52.286;9.576;2022-12-18T09:38:29;-1.50;99.90
44170;DHT22;29836;52.286;9.576;2022-12-18T09:43:40;-2.60;99.90
44170;DHT22;29836;52.286;9.576;2022-12-18T09:46:10;-2.80;99.90
44170;DHT22;29836;52.286;9.576;2022-12-18T09:48:42;-2.60;99.90
44170;DHT22;29836;52.286;9.576;2022-12-18T09:51:16;-2.40;99.90
44170;DHT22;29836;52.286;9.576;2022-12-18T09:53:55;-2.20;99.90
44170;DHT22;29836;52.286;9.576;2022-12-18T09:56:22;-1.90;99.90
44170;DHT22;29836;52.286;9.576;2022-12-18T09:58:58;-1.70;99.90
44170;DHT22;29836;52.286;9.576;2022-12-18T10:01:24;-1.50;99.90
44170;DHT22;29836;52.286;9.576;2022-12-18T10:03:52;-1.40;99.90
44170;DHT22;29836;52.286;9.576;2022-12-18T10:06:39;-1.50;99.90
44170;DHT22;29836;52.286;9.576;2022-12-18T10:20:10;-1.50;99.90
44170;DHT22;29836;52.286;9.576;2022-12-18T10:28:22;-2.10;99.90
44170;DHT22;29836;52.286;9.576;2022-12-18T10:30:48;-2.20;99.90
44170;DHT22;29836;52.286;9.576;2022-12-18T10:33:17;-2.30;99.90
44170;DHT22;29836;52.286;9.576;2022-12-18T10:35:43;-2.20;99.90
44170;DHT22;29836;52.286;9.576;2022-12-18T10:41:02;-1.60;99.90
44170;DHT22;29836;52.286;9.576;2022-12-18T10:43:33;-1.40;99.90
44170;DHT22;29836;52.286;9.576;2022-12-18T10:48:24;-1.60;99.90
44170;DHT22;29836;52.286;9.576;2022-12-18T10:50:51;-1.80;99.90
44170;DHT22;29836;52.286;9.576;2022-12-18T10:53:25;-1.80;99.90
44170;DHT22;29836;52.286;9.576;2022-12-18T10:55:53;-1.90;99.90
44170;DHT22;29836;52.286;9.576;2022-12-18T10:58:31;-1.90;99.90
44170;DHT22;29836;52.286;9.576;2022-12-18T11:01:23;-2.00;99.90
44170;DHT22;29836;52.286;9.576;2022-12-18T11:06:23;-2.00;99.90
44170;DHT22;29836;52.286;9.576;2022-12-18T11:09:04;-2.10;99.90
44170;DHT22;29836;52.286;9.576;2022-12-18T11:11:32;-1.90;99.90
44170;DHT22;29836;52.286;9.576;2022-12-18T11:14:02;-1.80;99.90
44170;DHT22;29836;52.286;9.576;2022-12-18T11:16:30;-1.70;99.90
44170;DHT22;29836;52.286;9.576;2022-12-18T11:19:35;-1.60;99.90
44170;DHT22;29836;52.286;9.576;2022-12-18T11:22:16;-1.60;99.90
44170;DHT22;29836;52.286;9.576;2022-12-18T11:25:02;-1.60;99.90
44170;DHT22;29836;52.286;9.576;2022-12-18T11:27:29;-1.60;99.90
44170;DHT22;29836;52.286;9.576;2022-12-18T11:32:48;-1.80;99.90
44170;DHT22;29836;52.286;9.576;2022-12-18T11:35:32;-1.90;99.90
44170;DHT22;29836;52.286;9.576;2022-12-18T11:38:26;-2.00;99.90
44170;DHT22;29836;52.286;9.576;2022-12-18T11:41:06;-2.00;99.90
44170;DHT22;29836;52.286;9.576;2022-12-18T11:46:23;-2.10;99.90
44170;DHT22;29836;52.286;9.576;2022-12-18T11:48:58;-2.10;99.90
44170;DHT22;29836;52.286;9.576;2022-12-18T11:51:38;-2.10;99.90
44170;DHT22;29836;52.286;9.576;2022-12-18T11:54:13;-2.20;99.90
44170;DHT22;29836;52.286;9.576;2022-12-18T11:56:53;-2.10;99.90
44170;DHT22;29836;52.286;9.576;2022-12-18T12:08:05;-2.10;99.90
44170;DHT22;29836;52.286;9.576;2022-12-18T12:10:56;-2.10;99.90
44170;DHT22;29836;52.286;9.576;2022-12-18T12:16:18;-2.10;99.90
44170;DHT22;29836;52.286;9.576;2022-12-18T12:19:00;-2.10;99.90
44170;DHT22;29836;52.286;9.576;2022-12-18T12:21:41;-2.10;99.90
44170;DHT22;29836;52.286;9.576;2022-12-18T12:24:54;-2.00;99.90
44170;DHT22;29836;52.286;9.576;2022-12-18T12:30:25;-1.90;99.90
44170;DHT22;29836;52.286;9.576;2022-12-18T12:33:12;-1.90;99.90
44170;DHT22;29836;52.286;9.576;2022-12-18T12:36:02;-1.80;99.90
44170;DHT22;29836;52.286;9.576;2022-12-18T12:38:47;-1.70;99.90
44170;DHT22;29836;52.286;9.576;2022-12-18T12:41:17;-1.60;99.90
44170;DHT22;29836;52.286;9.576;2022-12-18T12:44:05;-1.60;99.90
44170;DHT22;29836;52.286;9.576;2022-12-18T12:46:35;-1.60;99.90
44170;DHT22;29836;52.286;9.576;2022-12-18T12:49:03;-1.50;99.90
44170;DHT22;29836;52.286;9.576;2022-12-18T12:51:35;-1.50;99.90
44170;DHT22;29836;52.286;9.576;2022-12-18T12:54:15;-1.50;99.90
44170;DHT22;29836;52.286;9.576;2022-12-18T12:59:24;-1.50;99.90
44170;DHT22;29836;52.286;9.576;2022-12-18T13:02:22;-1.60;99.90
44170;DHT22;29836;52.286;9.576;2022-12-18T13:07:41;-1.50;99.90
44170;DHT22;29836;52.286;9.576;2022-12-18T13:13:12;-1.50;99.90
44170;DHT22;29836;52.286;9.576;2022-12-18T13:15:40;-1.40;99.90
44170;DHT22;29836;52.286;9.576;2022-12-18T13:23:01;-1.40;99.90
44170;DHT22;29836;52.286;9.576;2022-12-18T13:25:44;-1.40;99.90
44170;DHT22;29836;52.286;9.576;2022-12-18T13:28:12;-1.40;99.90
44170;DHT22;29836;52.286;9.576;2022-12-18T13:30:53;-1.40;99.90
44170;DHT22;29836;52.286;9.576;2022-12-18T13:41:04;-1.60;99.90
44170;DHT22;29836;52.286;9.576;2022-12-18T13:43:51;-1.60;99.90
44170;DHT22;29836;52.286;9.576;2022-12-18T13:46:25;-1.60;99.90
44170;DHT22;29836;52.286;9.576;2022-12-18T13:49:05;-1.60;99.90
44170;DHT22;29836;52.286;9.576;2022-12-18T13:51:33;-1.70;99.90
44170;DHT22;29836;52.286;9.576;2022-12-18T13:54:13;-1.70;99.90
44170;DHT22;29836;52.286;9.576;2022-12-18T13:56:45;-1.80;99.90
44170;DHT22;29836;52.286;9.576;2022-12-18T13:59:17;-1.70;99.90
44170;DHT22;29836;52.286;9.576;2022-12-18T14:04:24;-1.70;99.90
44170;DHT22;29836;52.286;9.576;2022-12-18T14:06:53;-1.70;99.90
44170;DHT22;29836;52.286;9.576;2022-12-18T14:09:30;-1.70;99.90
44170;DHT22;29836;52.286;9.576;2022-12-18T14:11:57;-1.80;99.90
44170;DHT22;29836;52.286;9.576;2022-12-18T14:14:55;-1.80;99.90
44170;DHT22;29836;52.286;9.576;2022-12-18T14:17:22;-1.80;99.90
44170;DHT22;29836;52.286;9.576;2022-12-18T14:19:50;-1.80;99.90
44170;DHT22;29836;52.286;9.576;2022-12-18T14:22:21;-1.70;99.90
44170;DHT22;29836;52.286;9.576;2022-12-18T14:25:16;-1.80;99.90
44170;DHT22;29836;52.286;9.576;2022-12-18T14:28:00;-1.80;99.90
44170;DHT22;29836;52.286;9.576;2022-12-18T14:30:30;-1.80;99.90
44170;DHT22;29836;52.286;9.576;2022-12-18T14:33:11;-1.70;99.90
44170;DHT22;29836;52.286;9.576;2022-12-18T14:35:53;-1.70;99.90
44170;DHT22;29836;52.286;9.576;2022-12-18T14:38:27;-1.60;99.90
44170;DHT22;29836;52.286;9.576;2022-12-18T14:41:13;-1.60;99.90
44170;DHT22;29836;52.286;9.576;2022-12-18T14:43:42;-1.50;99.90
44170;DHT22;29836;52.286;9.576;2022-12-18T14:49:02;-1.50;99.90
44170;DHT22;29836;52.286;9.576;2022-12-18T14:51:30;-1.50;99.90
44170;DHT22;29836;52.286;9.576;2022-12-18T14:54:02;-1.40;99.90
44170;DHT22;29836;52.286;9.576;2022-12-18T14:56:34;-1.40;99.90
44170;DHT22;29836;52.286;9.576;2022-12-18T14:59:13;-1.40;99.90
44170;DHT22;29836;52.286;9.576;2022-12-18T15:04:29;-1.40;99.90
44170;DHT22;29836;52.286;9.576;2022-12-18T15:07:09;-1.40;99.90
44170;DHT22;29836;52.286;9.576;2022-12-18T15:09:37;-1.50;99.90
44170;DHT22;29836;52.286;9.576;2022-12-18T15:12:04;-1.50;99.90
44170;DHT22;29836;52.286;9.576;2022-12-18T15:16:56;-1.50;99.90
44170;DHT22;29836;52.286;9.576;2022-12-18T15:19:36;-1.40;99.90
44170;DHT22;29836;52.286;9.576;2022-12-18T15:22:02;-1.30;99.90
44170;DHT22;29836;52.286;9.576;2022-12-18T15:24:31;-1.40;99.90
44170;DHT22;29836;52.286;9.576;2022-12-18T15:26:58;-1.40;99.90
44170;DHT22;29836;52.286;9.576;2022-12-18T15:29:24;-1.50;99.90
44170;DHT22;29836;52.286;9.576;2022-12-18T15:32:04;-1.40;99.90
44170;DHT22;29836;52.286;9.576;2022-12-18T15:34:31;-1.40;99.90
44170;DHT22;29836;52.286;9.576;2022-12-18T15:36:57;-1.50;99.90
44170;DHT22;29836;52.286;9.576;2022-12-18T15:39:23;-1.60;99.90
44170;DHT22;29836;52.286;9.576;2022-12-18T15:41:49;-1.60;99.90
44170;DHT22;29836;52.286;9.576;2022-12-18T15:44:33;-1.60;99.90
44170;DHT22;29836;52.286;9.576;2022-12-18T15:46:59;-1.70;99.90
44170;DHT22;29836;52.286;9.576;2022-12-18T15:49:24;-1.70;99.90
44170;DHT22;29836;52.286;9.576;2022-12-18T15:51:53;-1.70;99.90
44170;DHT22;29836;52.286;9.576;2022-12-18T15:54:20;-1.80;99.90
44170;DHT22;29836;52.286;9.576;2022-12-18T15:57:10;-1.80;99.90
44170;DHT22;29836;52.286;9.576;2022-12-18T15:59:48;-1.70;99.90
44170;DHT22;29836;52.286;9.576;2022-12-18T16:02:16;-1.70;99.90
44170;DHT22;29836;52.286;9.576;2022-12-18T16:04:42;-1.70;99.90
44170;DHT22;29836;52.286;9.576;2022-12-18T16:07:09;-1.70;99.90
44170;DHT22;29836;52.286;9.576;2022-12-18T16:09:35;-1.70;99.90
44170;DHT22;29836;52.286;9.576;2022-12-18T16:12:01;-1.80;99.90
44170;DHT22;29836;52.286;9.576;2022-12-18T16:14:29;-1.80;99.90
44170;DHT22;29836;52.286;9.576;2022-12-18T16:17:00;-1.90;99.90
44170;DHT22;29836;52.286;9.576;2022-12-18T16:19:26;-1.80;99.90
44170;DHT22;29836;52.286;9.576;2022-12-18T16:21:54;-1.80;99.90
44170;DHT22;29836;52.286;9.576;2022-12-18T16:24:22;-1.90;99.90
44170;DHT22;29836;52.286;9.576;2022-12-18T16:26:48;-1.80;99.90
44170;DHT22;29836;52.286;9.576;2022-12-18T16:29:14;-1.70;99.90
44170;DHT22;29836;52.286;9.576;2022-12-18T16:31:40;-1.70;99.90
44170;DHT22;29836;52.286;9.576;2022-12-18T16:34:14;-1.70;99.90
44170;DHT22;29836;52.286;9.576;2022-12-18T16:36:43;-1.80;99.90
44170;DHT22;29836;52.286;9.576;2022-12-18T16:39:09;-1.90;99.90
44170;DHT22;29836;52.286;9.576;2022-12-18T16:41:34;-1.90;99.90
44170;DHT22;29836;52.286;9.576;2022-12-18T16:44:00;-1.90;99.90
44170;DHT22;29836;52.286;9.576;2022-12-18T16:46:26;-1.90;99.90
44170;DHT22;29836;52.286;9.576;2022-12-18T16:48:52;-1.80;99.90
44170;DHT22;29836;52.286;9.576;2022-12-18T16:51:17;-1.80;99.90
44170;DHT22;29836;52.286;9.576;2022-12-18T16:53:43;-1.70;99.90
44170;DHT22;29836;52.286;9.576;2022-12-18T16:56:09;-1.70;99.90
44170;DHT22;29836;52.286;9.576;2022-12-18T16:58:34;-1.70;99.90
44170;DHT22;29836;52.286;9.576;2022-12-18T17:01:01;-1.70;99.90
44170;DHT22;29836;52.286;9.576;2022-12-18T17:03:31;-1.70;99.90
44170;DHT22;29836;52.286;9.576;2022-12-18T17:06:02;-1.70;99.90
44170;DHT22;29836;52.286;9.576;2022-12-18T17:08:28;-1.60;99.90
44170;DHT22;29836;52.286;9.576;2022-12-18T17:10:53;-1.50;99.90
44170;DHT22;29836;52.286;9.576;2022-12-18T17:13:19;-1.50;99.90
44170;DHT22;29836;52.286;9.576;2022-12-18T17:15:44;-1.60;99.90
44170;DHT22;29836;52.286;9.576;2022-12-18T17:18:11;-1.60;99.90
44170;DHT22;29836;52.286;9.576;2022-12-18T17:20:36;-1.60;99.90
44170;DHT22;29836;52.286;9.576;2022-12-18T17:23:02;-1.60;99.90
44170;DHT22;29836;52.286;9.576;2022-12-18T17:25:27;-1.60;99.90
44170;DHT22;29836;52.286;9.576;2022-12-18T17:27:53;-1.50;99.90
44170;DHT22;29836;52.286;9.576;2022-12-18T17:30:19;-1.50;99.90